Aulander, North Carolina
Current Conditions -  °F | °C
As of 11:15 AM on Monday 26 Jan 2015 (Local Time) from KASJ Reporting Station
Clear Clear  
Wind Chill: 43°   Ceiling: Unl
Heat Index: 46°   Visibility: 10mi
Dew Point: 39°   Wind: 5mph
Humidity: 79%   Direction: 340°NNW
Pressure: 29.65"   Gusts: NA
Location:  36.23°N, 77.11°W
Report Text: KASJ 261615Z AUTO 34004KT 10SM CLR 08/04 A2965 RMK AO2 T00750040
Loading
Personal Weather Stations






























Interactive Weather Map New forecast layout! Learn more

10-Day Weather Forecast

Advertisements
Track Severe Weather on mobile